Petersburg James A Johnson Airport
PAPG : rendu visible

Aérodrome :











RETROUVEZ-NOUS SUR...

 
LOGIN :

S'inscrire | Disclaimer

   EN    FR    IT 

 









Légende :    VFR   VFR Marginal   IFR   IFR Intensif   IFR Très Intensif
Visi : 
Plafond : 
>= 8 km
>= 3000ft
5 à 8 km
1000 à 3000 ft
1500m à 5 km
500 à 1000 ft
800 à 1500m
200 à 500 ft
< 800m
< 200 ft
Symboles :   Orages  Brouillard  Fortes neiges  Fortes précipitations  Vent > 20 kt






- Altitude de l'aérodrome : 111 ft
- Code IATA : PSG


PAPG - Petersburg James A Johnson

DERNIER METAR :
  • 140556Z 12011G18KT 10SM -RA FEW027 BKN035 OVC048 08/06 A2967

METARs EXPIRÉS :
  • 140456Z 14010G16KT 10SM -RA OVC047 08/06 A2969
  • 140356Z 10006KT 10SM -RA OVC045 09/06 A2972
  • 140256Z 10005KT 10SM -RA OVC043 09/07 A2972

TAF PAPG
Valide du 14 à 06h jusqu'au 15 à 06h UTC


140544Z 1406/1506 09010G18KT 5SM RA BR SCT020 OVC040 WS020/15040KT
FM141400 10010G15KT 5SM -RA BR BKN015 OVC025 WS020/15030KT
FM141800 12007KT 4SM -RA BR SCT007 OVC015 AMD LTD TO CLD VIS AND WIND 1406/1415



MET'MAP, la Météo Aéronautique d'un coup d'oeil ! - Copyright ORBIFLY Décembre 2007 - Disclaimer

ORBIFLY MET'MAP TEAM :

Programmation & Développement : Alexandra Zaïnal
Conception & Développement : Baudouin d'Aumeries
Co-Programmation & Développement : Marc-Olivier Méhu
Soutien technique & logistique : Manuel Goepfert

Contact : metmap@orbifly.com




SOURCES & CREDITS :

   NOAA       Earth
Advisory